sensor_id;sensor_type;location;lat;lon;timestamp;P1;durP1;ratioP1;P2;durP2;ratioP2
20861;SDS011;10591;52.532;13.348;2023-09-12T00:01:48;28.77;;;15.88;;
20861;SDS011;10591;52.532;13.348;2023-09-12T00:04:22;28.87;;;16.23;;
20861;SDS011;10591;52.532;13.348;2023-09-12T00:06:54;26.57;;;15.53;;
20861;SDS011;10591;52.532;13.348;2023-09-12T00:09:27;31.33;;;16.02;;
20861;SDS011;10591;52.532;13.348;2023-09-12T00:11:59;27.95;;;15.40;;
20861;SDS011;10591;52.532;13.348;2023-09-12T00:14:29;28.83;;;16.07;;
20861;SDS011;10591;52.532;13.348;2023-09-12T00:17:02;22.37;;;15.70;;
20861;SDS011;10591;52.532;13.348;2023-09-12T00:19:34;26.55;;;16.17;;
20861;SDS011;10591;52.532;13.348;2023-09-12T00:22:06;24.12;;;14.45;;
20861;SDS011;10591;52.532;13.348;2023-09-12T00:24:37;27.10;;;15.00;;
20861;SDS011;10591;52.532;13.348;2023-09-12T00:27:09;26.55;;;17.55;;
20861;SDS011;10591;52.532;13.348;2023-09-12T00:29:40;27.32;;;15.65;;
20861;SDS011;10591;52.532;13.348;2023-09-12T00:32:10;30.12;;;17.37;;
20861;SDS011;10591;52.532;13.348;2023-09-12T00:34:41;30.17;;;18.52;;
20861;SDS011;10591;52.532;13.348;2023-09-12T00:37:13;27.52;;;18.32;;
20861;SDS011;10591;52.532;13.348;2023-09-12T00:39:44;28.35;;;17.05;;
20861;SDS011;10591;52.532;13.348;2023-09-12T00:42:16;31.15;;;20.43;;
20861;SDS011;10591;52.532;13.348;2023-09-12T00:44:49;28.57;;;16.77;;
20861;SDS011;10591;52.532;13.348;2023-09-12T00:47:20;24.55;;;16.30;;
20861;SDS011;10591;52.532;13.348;2023-09-12T00:49:53;23.35;;;15.80;;
20861;SDS011;10591;52.532;13.348;2023-09-12T00:52:26;23.45;;;14.98;;
20861;SDS011;10591;52.532;13.348;2023-09-12T00:54:58;29.32;;;15.55;;
20861;SDS011;10591;52.532;13.348;2023-09-12T00:57:32;24.50;;;13.85;;
20861;SDS011;10591;52.532;13.348;2023-09-12T01:00:06;25.37;;;15.72;;
20861;SDS011;10591;52.532;13.348;2023-09-12T01:02:41;104.25;;;21.20;;
20861;SDS011;10591;52.532;13.348;2023-09-12T01:05:13;22.42;;;14.07;;
20861;SDS011;10591;52.532;13.348;2023-09-12T01:07:44;23.73;;;14.75;;
20861;SDS011;10591;52.532;13.348;2023-09-12T01:10:18;23.98;;;14.15;;
20861;SDS011;10591;52.532;13.348;2023-09-12T01:12:49;25.48;;;15.25;;
20861;SDS011;10591;52.532;13.348;2023-09-12T01:15:21;27.07;;;15.32;;
20861;SDS011;10591;52.532;13.348;2023-09-12T01:17:52;27.52;;;15.30;;
20861;SDS011;10591;52.532;13.348;2023-09-12T01:20:28;30.92;;;16.27;;
20861;SDS011;10591;52.532;13.348;2023-09-12T01:28:20;28.85;;;14.83;;
20861;SDS011;10591;52.532;13.348;2023-09-12T01:30:57;27.48;;;16.62;;
20861;SDS011;10591;52.532;13.348;2023-09-12T01:33:29;23.85;;;16.48;;
20861;SDS011;10591;52.532;13.348;2023-09-12T01:36:00;23.32;;;15.58;;
20861;SDS011;10591;52.532;13.348;2023-09-12T01:38:30;25.27;;;17.23;;
20861;SDS011;10591;52.532;13.348;2023-09-12T01:41:01;26.75;;;17.52;;
20861;SDS011;10591;52.532;13.348;2023-09-12T01:43:32;24.05;;;14.73;;
20861;SDS011;10591;52.532;13.348;2023-09-12T01:46:05;22.95;;;13.93;;
20861;SDS011;10591;52.532;13.348;2023-09-12T01:48:40;21.82;;;13.88;;
20861;SDS011;10591;52.532;13.348;2023-09-12T01:51:11;22.77;;;14.13;;
20861;SDS011;10591;52.532;13.348;2023-09-12T01:53:44;17.20;;;13.40;;
20861;SDS011;10591;52.532;13.348;2023-09-12T01:56:15;22.27;;;14.35;;
20861;SDS011;10591;52.532;13.348;2023-09-12T01:58:48;22.80;;;14.85;;
20861;SDS011;10591;52.532;13.348;2023-09-12T02:01:19;21.60;;;14.78;;
20861;SDS011;10591;52.532;13.348;2023-09-12T02:03:51;22.13;;;14.87;;
20861;SDS011;10591;52.532;13.348;2023-09-12T02:06:21;18.55;;;13.55;;
20861;SDS011;10591;52.532;13.348;2023-09-12T02:08:52;18.17;;;13.55;;
20861;SDS011;10591;52.532;13.348;2023-09-12T02:11:23;19.02;;;14.20;;
20861;SDS011;10591;52.532;13.348;2023-09-12T02:13:55;20.72;;;14.55;;
20861;SDS011;10591;52.532;13.348;2023-09-12T02:16:25;22.42;;;14.63;;
20861;SDS011;10591;52.532;13.348;2023-09-12T02:18:56;22.32;;;14.45;;
20861;SDS011;10591;52.532;13.348;2023-09-12T02:21:26;20.15;;;14.38;;
20861;SDS011;10591;52.532;13.348;2023-09-12T02:23:57;23.35;;;14.63;;
20861;SDS011;10591;52.532;13.348;2023-09-12T02:26:28;26.40;;;17.25;;
20861;SDS011;10591;52.532;13.348;2023-09-12T02:28:59;18.48;;;14.45;;
20861;SDS011;10591;52.532;13.348;2023-09-12T02:31:31;23.75;;;14.33;;
20861;SDS011;10591;52.532;13.348;2023-09-12T02:34:04;21.10;;;14.13;;
20861;SDS011;10591;52.532;13.348;2023-09-12T02:36:35;17.55;;;13.90;;
20861;SDS011;10591;52.532;13.348;2023-09-12T02:39:06;20.35;;;14.18;;
20861;SDS011;10591;52.532;13.348;2023-09-12T02:41:36;20.43;;;13.55;;
20861;SDS011;10591;52.532;13.348;2023-09-12T02:44:08;18.70;;;13.98;;
20861;SDS011;10591;52.532;13.348;2023-09-12T02:46:38;19.77;;;14.00;;
20861;SDS011;10591;52.532;13.348;2023-09-12T02:49:10;21.37;;;14.15;;
20861;SDS011;10591;52.532;13.348;2023-09-12T02:51:41;19.05;;;13.98;;
20861;SDS011;10591;52.532;13.348;2023-09-12T02:54:12;21.52;;;15.25;;
20861;SDS011;10591;52.532;13.348;2023-09-12T02:56:43;22.73;;;14.63;;
20861;SDS011;10591;52.532;13.348;2023-09-12T02:59:13;19.67;;;13.55;;
20861;SDS011;10591;52.532;13.348;2023-09-12T03:01:44;23.92;;;14.63;;
20861;SDS011;10591;52.532;13.348;2023-09-12T03:04:14;21.52;;;13.70;;
20861;SDS011;10591;52.532;13.348;2023-09-12T03:06:45;19.82;;;13.98;;
20861;SDS011;10591;52.532;13.348;2023-09-12T03:09:16;21.00;;;14.13;;
20861;SDS011;10591;52.532;13.348;2023-09-12T03:11:49;23.57;;;15.78;;
20861;SDS011;10591;52.532;13.348;2023-09-12T03:14:19;23.10;;;14.87;;
20861;SDS011;10591;52.532;13.348;2023-09-12T03:16:50;21.37;;;14.50;;
20861;SDS011;10591;52.532;13.348;2023-09-12T03:19:21;17.48;;;14.05;;
20861;SDS011;10591;52.532;13.348;2023-09-12T03:21:53;18.32;;;14.03;;
20861;SDS011;10591;52.532;13.348;2023-09-12T03:24:24;16.65;;;13.18;;
20861;SDS011;10591;52.532;13.348;2023-09-12T03:26:55;19.77;;;13.58;;
20861;SDS011;10591;52.532;13.348;2023-09-12T03:29:26;18.57;;;14.58;;
20861;SDS011;10591;52.532;13.348;2023-09-12T03:31:56;20.92;;;13.32;;
20861;SDS011;10591;52.532;13.348;2023-09-12T03:34:27;20.62;;;13.85;;
20861;SDS011;10591;52.532;13.348;2023-09-12T03:36:59;16.52;;;13.15;;
20861;SDS011;10591;52.532;13.348;2023-09-12T03:39:31;21.62;;;13.38;;
20861;SDS011;10591;52.532;13.348;2023-09-12T03:42:02;22.75;;;14.13;;
20861;SDS011;10591;52.532;13.348;2023-09-12T03:44:35;19.05;;;13.38;;
20861;SDS011;10591;52.532;13.348;2023-09-12T03:47:05;21.95;;;15.00;;
20861;SDS011;10591;52.532;13.348;2023-09-12T03:49:38;23.77;;;15.72;;
20861;SDS011;10591;52.532;13.348;2023-09-12T03:52:09;24.12;;;15.50;;
20861;SDS011;10591;52.532;13.348;2023-09-12T03:54:40;18.80;;;13.40;;
20861;SDS011;10591;52.532;13.348;2023-09-12T03:57:11;22.62;;;14.35;;
20861;SDS011;10591;52.532;13.348;2023-09-12T03:59:44;23.35;;;15.03;;
20861;SDS011;10591;52.532;13.348;2023-09-12T04:02:17;21.02;;;14.93;;
20861;SDS011;10591;52.532;13.348;2023-09-12T04:04:49;21.17;;;14.93;;
20861;SDS011;10591;52.532;13.348;2023-09-12T04:07:21;20.10;;;14.23;;
20861;SDS011;10591;52.532;13.348;2023-09-12T04:09:51;22.37;;;14.40;;
20861;SDS011;10591;52.532;13.348;2023-09-12T04:12:22;22.70;;;14.58;;
20861;SDS011;10591;52.532;13.348;2023-09-12T04:14:53;18.23;;;14.23;;
20861;SDS011;10591;52.532;13.348;2023-09-12T04:17:27;22.37;;;14.60;;
20861;SDS011;10591;52.532;13.348;2023-09-12T04:19:58;20.32;;;15.05;;
20861;SDS011;10591;52.532;13.348;2023-09-12T04:22:28;23.80;;;15.60;;
20861;SDS011;10591;52.532;13.348;2023-09-12T04:25:00;18.07;;;14.25;;
20861;SDS011;10591;52.532;13.348;2023-09-12T04:27:31;29.35;;;16.15;;
20861;SDS011;10591;52.532;13.348;2023-09-12T04:30:04;20.37;;;14.95;;
20861;SDS011;10591;52.532;13.348;2023-09-12T04:32:36;16.93;;;13.85;;
20861;SDS011;10591;52.532;13.348;2023-09-12T04:35:07;18.15;;;13.72;;
20861;SDS011;10591;52.532;13.348;2023-09-12T04:37:38;18.57;;;13.80;;
20861;SDS011;10591;52.532;13.348;2023-09-12T04:40:09;19.62;;;14.68;;
20861;SDS011;10591;52.532;13.348;2023-09-12T04:42:40;19.52;;;14.53;;
20861;SDS011;10591;52.532;13.348;2023-09-12T04:45:11;21.57;;;15.40;;
20861;SDS011;10591;52.532;13.348;2023-09-12T04:47:41;20.30;;;14.73;;
20861;SDS011;10591;52.532;13.348;2023-09-12T04:50:12;22.27;;;15.25;;
20861;SDS011;10591;52.532;13.348;2023-09-12T04:52:42;23.12;;;15.23;;
20861;SDS011;10591;52.532;13.348;2023-09-12T04:55:14;23.87;;;14.93;;
20861;SDS011;10591;52.532;13.348;2023-09-12T04:57:44;20.08;;;14.78;;
20861;SDS011;10591;52.532;13.348;2023-09-12T05:00:16;21.57;;;15.75;;
20861;SDS011;10591;52.532;13.348;2023-09-12T05:02:46;21.82;;;16.80;;
20861;SDS011;10591;52.532;13.348;2023-09-12T05:05:17;21.37;;;16.05;;
20861;SDS011;10591;52.532;13.348;2023-09-12T05:07:48;20.15;;;14.87;;
20861;SDS011;10591;52.532;13.348;2023-09-12T05:10:20;23.57;;;16.12;;
20861;SDS011;10591;52.532;13.348;2023-09-12T05:12:51;22.48;;;16.60;;
20861;SDS011;10591;52.532;13.348;2023-09-12T05:15:23;22.52;;;14.70;;
20861;SDS011;10591;52.532;13.348;2023-09-12T05:17:55;20.52;;;14.90;;
20861;SDS011;10591;52.532;13.348;2023-09-12T05:20:27;18.23;;;13.93;;
20861;SDS011;10591;52.532;13.348;2023-09-12T05:22:58;17.85;;;14.45;;
20861;SDS011;10591;52.532;13.348;2023-09-12T05:25:29;17.30;;;13.68;;
20861;SDS011;10591;52.532;13.348;2023-09-12T05:28:01;18.02;;;14.68;;
20861;SDS011;10591;52.532;13.348;2023-09-12T05:30:32;19.85;;;13.53;;
20861;SDS011;10591;52.532;13.348;2023-09-12T05:33:04;19.92;;;15.80;;
20861;SDS011;10591;52.532;13.348;2023-09-12T05:35:34;20.27;;;14.60;;
20861;SDS011;10591;52.532;13.348;2023-09-12T05:38:06;18.85;;;14.30;;
20861;SDS011;10591;52.532;13.348;2023-09-12T05:40:37;19.48;;;13.85;;
20861;SDS011;10591;52.532;13.348;2023-09-12T05:43:08;17.27;;;14.35;;
20861;SDS011;10591;52.532;13.348;2023-09-12T05:45:38;16.55;;;13.90;;
20861;SDS011;10591;52.532;13.348;2023-09-12T05:48:09;20.20;;;15.13;;
20861;SDS011;10591;52.532;13.348;2023-09-12T05:50:40;17.73;;;13.72;;
20861;SDS011;10591;52.532;13.348;2023-09-12T05:53:10;18.45;;;14.38;;
20861;SDS011;10591;52.532;13.348;2023-09-12T05:55:41;17.25;;;13.80;;
20861;SDS011;10591;52.532;13.348;2023-09-12T05:58:12;22.42;;;18.23;;
20861;SDS011;10591;52.532;13.348;2023-09-12T06:00:43;23.92;;;15.65;;
20861;SDS011;10591;52.532;13.348;2023-09-12T06:03:16;18.85;;;13.45;;
20861;SDS011;10591;52.532;13.348;2023-09-12T06:05:48;16.52;;;13.85;;
20861;SDS011;10591;52.532;13.348;2023-09-12T06:08:18;17.92;;;16.02;;
20861;SDS011;10591;52.532;13.348;2023-09-12T06:10:49;16.35;;;13.25;;
20861;SDS011;10591;52.532;13.348;2023-09-12T06:13:21;15.43;;;13.83;;
20861;SDS011;10591;52.532;13.348;2023-09-12T06:15:54;15.55;;;12.55;;
20861;SDS011;10591;52.532;13.348;2023-09-12T06:18:25;19.95;;;14.40;;
20861;SDS011;10591;52.532;13.348;2023-09-12T06:20:59;16.77;;;13.50;;
20861;SDS011;10591;52.532;13.348;2023-09-12T06:23:31;22.82;;;14.78;;
20861;SDS011;10591;52.532;13.348;2023-09-12T06:26:02;16.15;;;12.90;;
20861;SDS011;10591;52.532;13.348;2023-09-12T06:28:33;17.40;;;12.53;;
20861;SDS011;10591;52.532;13.348;2023-09-12T06:31:03;15.43;;;12.70;;
20861;SDS011;10591;52.532;13.348;2023-09-12T06:33:38;20.48;;;13.48;;
20861;SDS011;10591;52.532;13.348;2023-09-12T06:36:09;20.23;;;13.13;;
20861;SDS011;10591;52.532;13.348;2023-09-12T06:38:42;19.45;;;13.45;;
20861;SDS011;10591;52.532;13.348;2023-09-12T06:41:13;20.62;;;12.25;;
20861;SDS011;10591;52.532;13.348;2023-09-12T06:43:45;15.95;;;12.30;;
20861;SDS011;10591;52.532;13.348;2023-09-12T06:46:17;18.90;;;12.15;;
20861;SDS011;10591;52.532;13.348;2023-09-12T06:48:49;17.17;;;11.28;;
20861;SDS011;10591;52.532;13.348;2023-09-12T06:51:23;14.63;;;10.30;;
20861;SDS011;10591;52.532;13.348;2023-09-12T06:54:00;13.32;;;10.08;;
20861;SDS011;10591;52.532;13.348;2023-09-12T06:56:34;14.70;;;10.23;;
20861;SDS011;10591;52.532;13.348;2023-09-12T06:59:07;17.02;;;10.65;;
20861;SDS011;10591;52.532;13.348;2023-09-12T07:01:41;14.85;;;10.08;;
20861;SDS011;10591;52.532;13.348;2023-09-12T07:04:12;14.85;;;11.00;;
20861;SDS011;10591;52.532;13.348;2023-09-12T07:06:46;15.20;;;11.78;;
20861;SDS011;10591;52.532;13.348;2023-09-12T07:09:17;23.57;;;11.73;;
20861;SDS011;10591;52.532;13.348;2023-09-12T07:11:48;15.10;;;10.23;;
20861;SDS011;10591;52.532;13.348;2023-09-12T07:14:20;14.05;;;10.08;;
20861;SDS011;10591;52.532;13.348;2023-09-12T07:16:52;14.73;;;10.23;;
20861;SDS011;10591;52.532;13.348;2023-09-12T07:19:25;11.97;;;9.68;;
20861;SDS011;10591;52.532;13.348;2023-09-12T07:21:57;16.70;;;10.78;;
20861;SDS011;10591;52.532;13.348;2023-09-12T07:24:28;15.35;;;10.13;;
20861;SDS011;10591;52.532;13.348;2023-09-12T07:27:00;12.78;;;9.60;;
20861;SDS011;10591;52.532;13.348;2023-09-12T07:29:32;14.87;;;10.68;;
20861;SDS011;10591;52.532;13.348;2023-09-12T07:32:04;16.70;;;10.72;;
20861;SDS011;10591;52.532;13.348;2023-09-12T07:34:34;17.00;;;10.10;;
20861;SDS011;10591;52.532;13.348;2023-09-12T07:37:08;18.17;;;10.98;;
20861;SDS011;10591;52.532;13.348;2023-09-12T07:39:40;13.90;;;10.05;;
20861;SDS011;10591;52.532;13.348;2023-09-12T07:42:11;20.17;;;10.80;;
20861;SDS011;10591;52.532;13.348;2023-09-12T07:44:41;15.80;;;10.60;;
20861;SDS011;10591;52.532;13.348;2023-09-12T07:47:14;14.50;;;10.68;;
20861;SDS011;10591;52.532;13.348;2023-09-12T07:49:44;17.05;;;10.68;;
20861;SDS011;10591;52.532;13.348;2023-09-12T07:52:15;14.45;;;10.40;;
20861;SDS011;10591;52.532;13.348;2023-09-12T07:54:49;15.70;;;10.63;;
20861;SDS011;10591;52.532;13.348;2023-09-12T07:57:23;18.27;;;10.35;;
20861;SDS011;10591;52.532;13.348;2023-09-12T07:59:53;19.15;;;10.23;;
20861;SDS011;10591;52.532;13.348;2023-09-12T08:02:25;15.32;;;9.58;;
20861;SDS011;10591;52.532;13.348;2023-09-12T08:04:55;14.47;;;9.60;;
20861;SDS011;10591;52.532;13.348;2023-09-12T08:07:26;17.55;;;11.05;;
20861;SDS011;10591;52.532;13.348;2023-09-12T08:09:58;13.15;;;9.95;;
20861;SDS011;10591;52.532;13.348;2023-09-12T08:12:29;16.87;;;10.98;;
20861;SDS011;10591;52.532;13.348;2023-09-12T08:15:02;17.75;;;11.60;;
20861;SDS011;10591;52.532;13.348;2023-09-12T08:17:33;22.75;;;13.15;;
20861;SDS011;10591;52.532;13.348;2023-09-12T08:20:04;18.23;;;10.95;;
20861;SDS011;10591;52.532;13.348;2023-09-12T08:22:38;17.62;;;11.73;;
20861;SDS011;10591;52.532;13.348;2023-09-12T08:25:08;16.80;;;10.43;;
20861;SDS011;10591;52.532;13.348;2023-09-12T08:27:42;19.10;;;10.40;;
20861;SDS011;10591;52.532;13.348;2023-09-12T08:30:13;20.60;;;11.15;;
20861;SDS011;10591;52.532;13.348;2023-09-12T08:32:46;16.75;;;9.85;;
20861;SDS011;10591;52.532;13.348;2023-09-12T08:35:18;15.88;;;9.23;;
20861;SDS011;10591;52.532;13.348;2023-09-12T08:37:50;19.02;;;10.13;;
20861;SDS011;10591;52.532;13.348;2023-09-12T08:40:21;19.35;;;11.40;;
20861;SDS011;10591;52.532;13.348;2023-09-12T08:42:52;14.15;;;9.50;;
20861;SDS011;10591;52.532;13.348;2023-09-12T08:45:24;20.90;;;9.55;;
20861;SDS011;10591;52.532;13.348;2023-09-12T08:47:56;17.82;;;11.88;;
20861;SDS011;10591;52.532;13.348;2023-09-12T08:50:32;14.85;;;10.35;;
20861;SDS011;10591;52.532;13.348;2023-09-12T08:53:04;15.78;;;10.08;;
20861;SDS011;10591;52.532;13.348;2023-09-12T08:55:37;16.20;;;8.45;;
20861;SDS011;10591;52.532;13.348;2023-09-12T08:58:10;20.05;;;10.95;;
20861;SDS011;10591;52.532;13.348;2023-09-12T09:00:43;16.85;;;9.40;;
20861;SDS011;10591;52.532;13.348;2023-09-12T09:03:14;14.07;;;9.30;;
20861;SDS011;10591;52.532;13.348;2023-09-12T09:05:46;17.60;;;9.35;;
20861;SDS011;10591;52.532;13.348;2023-09-12T09:08:22;17.70;;;9.78;;
20861;SDS011;10591;52.532;13.348;2023-09-12T09:10:55;20.40;;;9.18;;
20861;SDS011;10591;52.532;13.348;2023-09-12T09:13:29;21.27;;;9.93;;
20861;SDS011;10591;52.532;13.348;2023-09-12T09:16:11;17.60;;;11.65;;
20861;SDS011;10591;52.532;13.348;2023-09-12T09:18:55;16.17;;;9.83;;
20861;SDS011;10591;52.532;13.348;2023-09-12T09:21:28;14.47;;;9.05;;
20861;SDS011;10591;52.532;13.348;2023-09-12T09:24:04;18.65;;;9.80;;
20861;SDS011;10591;52.532;13.348;2023-09-12T09:26:45;15.48;;;9.63;;
20861;SDS011;10591;52.532;13.348;2023-09-12T09:29:24;19.42;;;10.80;;
20861;SDS011;10591;52.532;13.348;2023-09-12T09:31:58;15.15;;;9.63;;
20861;SDS011;10591;52.532;13.348;2023-09-12T09:34:32;20.08;;;10.30;;
20861;SDS011;10591;52.532;13.348;2023-09-12T09:37:05;15.78;;;9.48;;
20861;SDS011;10591;52.532;13.348;2023-09-12T09:39:36;15.90;;;9.88;;
20861;SDS011;10591;52.532;13.348;2023-09-12T09:42:09;17.80;;;11.20;;
20861;SDS011;10591;52.532;13.348;2023-09-12T09:44:42;17.23;;;10.75;;
20861;SDS011;10591;52.532;13.348;2023-09-12T09:47:13;18.45;;;11.68;;
20861;SDS011;10591;52.532;13.348;2023-09-12T09:49:45;16.77;;;11.28;;
20861;SDS011;10591;52.532;13.348;2023-09-12T09:52:16;18.42;;;11.97;;
20861;SDS011;10591;52.532;13.348;2023-09-12T09:54:50;17.00;;;11.88;;
20861;SDS011;10591;52.532;13.348;2023-09-12T09:57:25;17.65;;;11.10;;
20861;SDS011;10591;52.532;13.348;2023-09-12T09:59:55;17.32;;;12.33;;
20861;SDS011;10591;52.532;13.348;2023-09-12T10:02:28;18.42;;;12.70;;
20861;SDS011;10591;52.532;13.348;2023-09-12T10:05:03;17.82;;;11.48;;
20861;SDS011;10591;52.532;13.348;2023-09-12T10:07:37;22.45;;;12.47;;
20861;SDS011;10591;52.532;13.348;2023-09-12T10:10:12;18.82;;;13.05;;
20861;SDS011;10591;52.532;13.348;2023-09-12T10:12:49;17.85;;;11.95;;
20861;SDS011;10591;52.532;13.348;2023-09-12T10:15:21;15.13;;;11.28;;
20861;SDS011;10591;52.532;13.348;2023-09-12T10:17:55;20.35;;;11.10;;
20861;SDS011;10591;52.532;13.348;2023-09-12T10:20:33;17.50;;;11.38;;
20861;SDS011;10591;52.532;13.348;2023-09-12T10:23:08;20.65;;;11.03;;
20861;SDS011;10591;52.532;13.348;2023-09-12T10:25:45;18.32;;;10.40;;
20861;SDS011;10591;52.532;13.348;2023-09-12T10:28:18;22.93;;;11.33;;
20861;SDS011;10591;52.532;13.348;2023-09-12T10:30:50;14.87;;;10.30;;
20861;SDS011;10591;52.532;13.348;2023-09-12T10:33:23;19.17;;;10.80;;
20861;SDS011;10591;52.532;13.348;2023-09-12T10:35:56;18.05;;;10.60;;
20861;SDS011;10591;52.532;13.348;2023-09-12T10:38:29;21.55;;;10.90;;
20861;SDS011;10591;52.532;13.348;2023-09-12T10:41:02;18.02;;;9.83;;
20861;SDS011;10591;52.532;13.348;2023-09-12T10:43:35;13.80;;;10.15;;
20861;SDS011;10591;52.532;13.348;2023-09-12T10:46:11;22.30;;;11.38;;
20861;SDS011;10591;52.532;13.348;2023-09-12T10:48:43;24.35;;;11.38;;
20861;SDS011;10591;52.532;13.348;2023-09-12T10:51:15;22.62;;;11.33;;
20861;SDS011;10591;52.532;13.348;2023-09-12T10:53:48;17.17;;;10.20;;
20861;SDS011;10591;52.532;13.348;2023-09-12T10:56:21;17.30;;;10.50;;
20861;SDS011;10591;52.532;13.348;2023-09-12T11:01:43;16.05;;;10.05;;
20861;SDS011;10591;52.532;13.348;2023-09-12T11:06:54;15.55;;;10.40;;
20861;SDS011;10591;52.532;13.348;2023-09-12T11:09:27;15.90;;;11.48;;
20861;SDS011;10591;52.532;13.348;2023-09-12T11:12:02;15.43;;;10.95;;
20861;SDS011;10591;52.532;13.348;2023-09-12T11:14:39;13.83;;;9.33;;
20861;SDS011;10591;52.532;13.348;2023-09-12T11:19:52;15.25;;;9.63;;
20861;SDS011;10591;52.532;13.348;2023-09-12T11:22:24;13.35;;;8.80;;
20861;SDS011;10591;52.532;13.348;2023-09-12T11:25:02;13.43;;;8.33;;
20861;SDS011;10591;52.532;13.348;2023-09-12T11:27:44;15.55;;;9.15;;
20861;SDS011;10591;52.532;13.348;2023-09-12T11:30:17;15.25;;;9.73;;
20861;SDS011;10591;52.532;13.348;2023-09-12T11:32:55;16.17;;;9.63;;
20861;SDS011;10591;52.532;13.348;2023-09-12T11:35:26;16.27;;;9.70;;
20861;SDS011;10591;52.532;13.348;2023-09-12T11:37:57;12.93;;;8.88;;
20861;SDS011;10591;52.532;13.348;2023-09-12T11:43:23;15.68;;;9.23;;
20861;SDS011;10591;52.532;13.348;2023-09-12T11:45:55;13.55;;;8.43;;
20861;SDS011;10591;52.532;13.348;2023-09-12T11:48:28;13.10;;;8.65;;
20861;SDS011;10591;52.532;13.348;2023-09-12T11:51:02;10.53;;;8.40;;
20861;SDS011;10591;52.532;13.348;2023-09-12T11:53:38;10.08;;;8.00;;
20861;SDS011;10591;52.532;13.348;2023-09-12T11:56:11;12.10;;;8.10;;
20861;SDS011;10591;52.532;13.348;2023-09-12T11:58:43;17.12;;;9.53;;
20861;SDS011;10591;52.532;13.348;2023-09-12T12:01:16;12.82;;;8.58;;
20861;SDS011;10591;52.532;13.348;2023-09-12T12:03:48;9.90;;;8.33;;
20861;SDS011;10591;52.532;13.348;2023-09-12T12:06:21;10.98;;;8.50;;
20861;SDS011;10591;52.532;13.348;2023-09-12T12:08:54;15.70;;;9.33;;
20861;SDS011;10591;52.532;13.348;2023-09-12T12:11:28;10.68;;;8.43;;
20861;SDS011;10591;52.532;13.348;2023-09-12T12:14:08;8.70;;;7.80;;
20861;SDS011;10591;52.532;13.348;2023-09-12T12:16:45;8.90;;;7.83;;
20861;SDS011;10591;52.532;13.348;2023-09-12T12:19:18;12.35;;;8.65;;
20861;SDS011;10591;52.532;13.348;2023-09-12T12:21:50;11.45;;;8.13;;
20861;SDS011;10591;52.532;13.348;2023-09-12T12:24:24;10.10;;;7.92;;
20861;SDS011;10591;52.532;13.348;2023-09-12T12:26:59;10.72;;;8.05;;
20861;SDS011;10591;52.532;13.348;2023-09-12T12:29:28;11.25;;;8.45;;
20861;SDS011;10591;52.532;13.348;2023-09-12T12:32:01;12.18;;;8.15;;
20861;SDS011;10591;52.532;13.348;2023-09-12T12:34:37;11.20;;;7.85;;
20861;SDS011;10591;52.532;13.348;2023-09-12T12:37:12;9.18;;;7.55;;
20861;SDS011;10591;52.532;13.348;2023-09-12T12:39:49;8.68;;;7.17;;
20861;SDS011;10591;52.532;13.348;2023-09-12T12:42:23;11.63;;;7.78;;
20861;SDS011;10591;52.532;13.348;2023-09-12T12:44:59;11.45;;;7.65;;
20861;SDS011;10591;52.532;13.348;2023-09-12T12:47:29;10.40;;;7.37;;
20861;SDS011;10591;52.532;13.348;2023-09-12T12:50:03;9.55;;;7.67;;
20861;SDS011;10591;52.532;13.348;2023-09-12T12:52:37;12.43;;;7.60;;
20861;SDS011;10591;52.532;13.348;2023-09-12T12:55:09;9.23;;;7.58;;
20861;SDS011;10591;52.532;13.348;2023-09-12T12:57:42;10.93;;;7.45;;
20861;SDS011;10591;52.532;13.348;2023-09-12T13:00:15;9.43;;;8.15;;
20861;SDS011;10591;52.532;13.348;2023-09-12T13:02:49;13.55;;;7.60;;
20861;SDS011;10591;52.532;13.348;2023-09-12T13:05:28;11.18;;;7.95;;
20861;SDS011;10591;52.532;13.348;2023-09-12T13:08:00;11.90;;;7.97;;
20861;SDS011;10591;52.532;13.348;2023-09-12T13:10:31;14.28;;;8.73;;
20861;SDS011;10591;52.532;13.348;2023-09-12T13:13:02;10.32;;;8.10;;
20861;SDS011;10591;52.532;13.348;2023-09-12T13:15:35;11.53;;;7.97;;
20861;SDS011;10591;52.532;13.348;2023-09-12T13:18:07;13.45;;;9.00;;
20861;SDS011;10591;52.532;13.348;2023-09-12T13:20:37;12.98;;;8.25;;
20861;SDS011;10591;52.532;13.348;2023-09-12T13:23:09;14.47;;;8.50;;
20861;SDS011;10591;52.532;13.348;2023-09-12T13:25:39;11.93;;;7.92;;
20861;SDS011;10591;52.532;13.348;2023-09-12T13:28:10;13.68;;;8.10;;
20861;SDS011;10591;52.532;13.348;2023-09-12T13:30:40;14.33;;;7.80;;
20861;SDS011;10591;52.532;13.348;2023-09-12T13:33:15;13.13;;;7.70;;
20861;SDS011;10591;52.532;13.348;2023-09-12T13:35:49;10.40;;;7.65;;
20861;SDS011;10591;52.532;13.348;2023-09-12T13:38:20;12.93;;;8.48;;
20861;SDS011;10591;52.532;13.348;2023-09-12T13:40:54;10.03;;;7.33;;
20861;SDS011;10591;52.532;13.348;2023-09-12T13:43:28;11.43;;;7.37;;
20861;SDS011;10591;52.532;13.348;2023-09-12T13:46:00;14.33;;;7.97;;
20861;SDS011;10591;52.532;13.348;2023-09-12T13:48:32;9.50;;;7.05;;
20861;SDS011;10591;52.532;13.348;2023-09-12T13:51:05;12.37;;;7.58;;
20861;SDS011;10591;52.532;13.348;2023-09-12T13:53:36;10.40;;;7.35;;
20861;SDS011;10591;52.532;13.348;2023-09-12T13:56:06;9.40;;;7.60;;
20861;SDS011;10591;52.532;13.348;2023-09-12T13:58:39;13.40;;;8.00;;
20861;SDS011;10591;52.532;13.348;2023-09-12T14:01:11;13.40;;;7.87;;
20861;SDS011;10591;52.532;13.348;2023-09-12T14:03:43;12.93;;;7.50;;
20861;SDS011;10591;52.532;13.348;2023-09-12T14:06:15;10.90;;;7.62;;
20861;SDS011;10591;52.532;13.348;2023-09-12T14:08:47;12.13;;;7.60;;
20861;SDS011;10591;52.532;13.348;2023-09-12T14:11:18;12.07;;;7.62;;
20861;SDS011;10591;52.532;13.348;2023-09-12T14:13:50;13.48;;;7.25;;
20861;SDS011;10591;52.532;13.348;2023-09-12T14:16:22;12.90;;;7.58;;
20861;SDS011;10591;52.532;13.348;2023-09-12T14:18:56;12.75;;;8.08;;
20861;SDS011;10591;52.532;13.348;2023-09-12T14:21:28;13.83;;;8.00;;
20861;SDS011;10591;52.532;13.348;2023-09-12T14:24:02;16.62;;;7.78;;
20861;SDS011;10591;52.532;13.348;2023-09-12T14:26:34;10.90;;;7.30;;
20861;SDS011;10591;52.532;13.348;2023-09-12T14:29:06;10.30;;;7.35;;
20861;SDS011;10591;52.532;13.348;2023-09-12T14:31:37;13.18;;;7.53;;
20861;SDS011;10591;52.532;13.348;2023-09-12T14:34:08;12.25;;;8.20;;
20861;SDS011;10591;52.532;13.348;2023-09-12T14:36:39;14.53;;;8.28;;
20861;SDS011;10591;52.532;13.348;2023-09-12T14:39:10;10.98;;;7.75;;
20861;SDS011;10591;52.532;13.348;2023-09-12T14:41:42;11.95;;;6.05;;
20861;SDS011;10591;52.532;13.348;2023-09-12T14:44:13;12.10;;;6.70;;
20861;SDS011;10591;52.532;13.348;2023-09-12T14:46:44;7.70;;;5.37;;
20861;SDS011;10591;52.532;13.348;2023-09-12T14:49:15;14.98;;;6.58;;
20861;SDS011;10591;52.532;13.348;2023-09-12T14:51:45;13.32;;;5.33;;
20861;SDS011;10591;52.532;13.348;2023-09-12T14:54:16;10.45;;;5.30;;
20861;SDS011;10591;52.532;13.348;2023-09-12T14:56:48;7.62;;;5.20;;
20861;SDS011;10591;52.532;13.348;2023-09-12T14:59:22;9.58;;;4.80;;